sensor_id;sensor_type;location;lat;lon;timestamp;P1;durP1;ratioP1;P2;durP2;ratioP2
64789;SDS011;51223;51.816;5.862;2022-07-06T00:01:50;3.13;;;0.75;;
64789;SDS011;51223;51.816;5.862;2022-07-06T00:04:17;2.60;;;0.98;;
64789;SDS011;51223;51.816;5.862;2022-07-06T00:06:43;1.75;;;0.93;;
64789;SDS011;51223;51.816;5.862;2022-07-06T00:09:09;2.55;;;0.80;;
64789;SDS011;51223;51.816;5.862;2022-07-06T00:11:35;0.82;;;0.80;;
64789;SDS011;51223;51.816;5.862;2022-07-06T00:14:01;2.08;;;0.95;;
64789;SDS011;51223;51.816;5.862;2022-07-06T00:16:27;3.53;;;0.73;;
64789;SDS011;51223;51.816;5.862;2022-07-06T00:18:53;0.60;;;0.60;;
64789;SDS011;51223;51.816;5.862;2022-07-06T00:21:19;1.55;;;1.08;;
64789;SDS011;51223;51.816;5.862;2022-07-06T00:23:45;1.63;;;0.70;;
64789;SDS011;51223;51.816;5.862;2022-07-06T00:26:11;1.70;;;0.90;;
64789;SDS011;51223;51.816;5.862;2022-07-06T00:28:37;1.48;;;0.95;;
64789;SDS011;51223;51.816;5.862;2022-07-06T00:31:03;4.30;;;0.90;;
64789;SDS011;51223;51.816;5.862;2022-07-06T00:33:28;4.65;;;1.30;;
64789;SDS011;51223;51.816;5.862;2022-07-06T00:35:54;1.25;;;0.77;;
64789;SDS011;51223;51.816;5.862;2022-07-06T00:38:20;0.50;;;0.50;;
64789;SDS011;51223;51.816;5.862;2022-07-06T00:40:46;0.80;;;0.60;;
64789;SDS011;51223;51.816;5.862;2022-07-06T00:43:12;0.63;;;0.50;;
64789;SDS011;51223;51.816;5.862;2022-07-06T00:45:38;2.92;;;0.90;;
64789;SDS011;51223;51.816;5.862;2022-07-06T00:48:04;0.60;;;0.60;;
64789;SDS011;51223;51.816;5.862;2022-07-06T00:50:29;1.10;;;0.80;;
64789;SDS011;51223;51.816;5.862;2022-07-06T00:52:56;0.60;;;0.60;;
64789;SDS011;51223;51.816;5.862;2022-07-06T00:55:27;0.63;;;0.47;;
64789;SDS011;51223;51.816;5.862;2022-07-06T00:57:55;0.50;;;0.50;;
64789;SDS011;51223;51.816;5.862;2022-07-06T01:00:22;1.98;;;0.70;;
64789;SDS011;51223;51.816;5.862;2022-07-06T01:02:49;0.50;;;0.50;;
64789;SDS011;51223;51.816;5.862;2022-07-06T01:05:15;1.73;;;0.70;;
64789;SDS011;51223;51.816;5.862;2022-07-06T01:07:42;0.75;;;0.45;;
64789;SDS011;51223;51.816;5.862;2022-07-06T01:10:10;1.48;;;1.00;;
64789;SDS011;51223;51.816;5.862;2022-07-06T01:12:37;6.38;;;0.80;;
64789;SDS011;51223;51.816;5.862;2022-07-06T01:15:07;1.73;;;0.70;;
64789;SDS011;51223;51.816;5.862;2022-07-06T01:17:34;0.77;;;0.70;;
64789;SDS011;51223;51.816;5.862;2022-07-06T01:20:11;1.40;;;0.70;;
64789;SDS011;51223;51.816;5.862;2022-07-06T01:22:37;0.70;;;0.60;;
64789;SDS011;51223;51.816;5.862;2022-07-06T01:25:04;1.17;;;0.70;;
64789;SDS011;51223;51.816;5.862;2022-07-06T01:27:32;2.42;;;0.70;;
64789;SDS011;51223;51.816;5.862;2022-07-06T01:30:00;1.08;;;0.98;;
64789;SDS011;51223;51.816;5.862;2022-07-06T01:32:26;1.63;;;0.90;;
64789;SDS011;51223;51.816;5.862;2022-07-06T01:34:51;3.25;;;0.70;;
64789;SDS011;51223;51.816;5.862;2022-07-06T01:37:17;2.38;;;0.80;;
64789;SDS011;51223;51.816;5.862;2022-07-06T01:39:43;0.50;;;0.50;;
64789;SDS011;51223;51.816;5.862;2022-07-06T01:42:09;0.70;;;0.52;;
64789;SDS011;51223;51.816;5.862;2022-07-06T01:44:35;2.90;;;0.65;;
64789;SDS011;51223;51.816;5.862;2022-07-06T01:47:00;1.83;;;0.57;;
64789;SDS011;51223;51.816;5.862;2022-07-06T01:49:26;0.73;;;0.38;;
64789;SDS011;51223;51.816;5.862;2022-07-06T01:51:52;0.73;;;0.60;;
64789;SDS011;51223;51.816;5.862;2022-07-06T01:54:18;1.95;;;1.20;;
64789;SDS011;51223;51.816;5.862;2022-07-06T01:56:43;3.95;;;1.00;;
64789;SDS011;51223;51.816;5.862;2022-07-06T01:59:09;0.80;;;0.70;;
64789;SDS011;51223;51.816;5.862;2022-07-06T02:01:35;1.60;;;0.90;;
64789;SDS011;51223;51.816;5.862;2022-07-06T02:04:01;0.90;;;0.70;;
64789;SDS011;51223;51.816;5.862;2022-07-06T02:06:27;0.68;;;0.68;;
64789;SDS011;51223;51.816;5.862;2022-07-06T02:08:53;0.88;;;0.68;;
64789;SDS011;51223;51.816;5.862;2022-07-06T02:11:19;0.63;;;0.63;;
64789;SDS011;51223;51.816;5.862;2022-07-06T02:13:45;0.90;;;0.65;;
64789;SDS011;51223;51.816;5.862;2022-07-06T02:16:11;1.17;;;0.80;;
64789;SDS011;51223;51.816;5.862;2022-07-06T02:18:37;0.60;;;0.60;;
64789;SDS011;51223;51.816;5.862;2022-07-06T02:21:05;0.75;;;0.63;;
64789;SDS011;51223;51.816;5.862;2022-07-06T02:23:31;5.10;;;0.68;;
64789;SDS011;51223;51.816;5.862;2022-07-06T02:25:57;1.80;;;1.02;;
64789;SDS011;51223;51.816;5.862;2022-07-06T02:28:23;0.88;;;0.70;;
64789;SDS011;51223;51.816;5.862;2022-07-06T02:30:49;0.85;;;0.70;;
64789;SDS011;51223;51.816;5.862;2022-07-06T02:33:14;1.25;;;0.93;;
64789;SDS011;51223;51.816;5.862;2022-07-06T02:35:40;2.17;;;1.05;;
64789;SDS011;51223;51.816;5.862;2022-07-06T02:38:11;1.83;;;1.15;;
64789;SDS011;51223;51.816;5.862;2022-07-06T02:40:37;3.53;;;1.15;;
64789;SDS011;51223;51.816;5.862;2022-07-06T02:43:03;1.75;;;1.25;;
64789;SDS011;51223;51.816;5.862;2022-07-06T02:45:30;2.58;;;1.13;;
64789;SDS011;51223;51.816;5.862;2022-07-06T02:47:56;1.02;;;0.90;;
64789;SDS011;51223;51.816;5.862;2022-07-06T02:50:23;4.13;;;1.17;;
64789;SDS011;51223;51.816;5.862;2022-07-06T02:52:49;0.70;;;0.50;;
64789;SDS011;51223;51.816;5.862;2022-07-06T02:55:15;0.70;;;0.70;;
64789;SDS011;51223;51.816;5.862;2022-07-06T02:57:41;1.42;;;0.95;;
64789;SDS011;51223;51.816;5.862;2022-07-06T03:00:07;0.93;;;0.70;;
64789;SDS011;51223;51.816;5.862;2022-07-06T03:02:34;0.70;;;0.70;;
64789;SDS011;51223;51.816;5.862;2022-07-06T03:05:01;3.08;;;1.10;;
64789;SDS011;51223;51.816;5.862;2022-07-06T03:07:27;1.85;;;0.77;;
64789;SDS011;51223;51.816;5.862;2022-07-06T03:09:52;1.30;;;0.75;;
64789;SDS011;51223;51.816;5.862;2022-07-06T03:12:18;2.15;;;1.00;;
64789;SDS011;51223;51.816;5.862;2022-07-06T03:14:44;1.67;;;1.00;;
64789;SDS011;51223;51.816;5.862;2022-07-06T03:17:10;2.15;;;1.00;;
64789;SDS011;51223;51.816;5.862;2022-07-06T03:19:36;1.70;;;0.80;;
64789;SDS011;51223;51.816;5.862;2022-07-06T03:22:02;1.63;;;0.80;;
64789;SDS011;51223;51.816;5.862;2022-07-06T03:24:28;2.08;;;0.90;;
64789;SDS011;51223;51.816;5.862;2022-07-06T03:26:54;0.77;;;0.60;;
64789;SDS011;51223;51.816;5.862;2022-07-06T03:29:19;1.05;;;0.60;;
64789;SDS011;51223;51.816;5.862;2022-07-06T03:31:46;9.30;;;0.75;;
64789;SDS011;51223;51.816;5.862;2022-07-06T03:34:12;0.80;;;0.70;;
64789;SDS011;51223;51.816;5.862;2022-07-06T03:36:38;1.45;;;0.70;;
64789;SDS011;51223;51.816;5.862;2022-07-06T03:39:04;1.15;;;0.80;;
64789;SDS011;51223;51.816;5.862;2022-07-06T03:41:30;0.70;;;0.70;;
64789;SDS011;51223;51.816;5.862;2022-07-06T03:43:56;3.40;;;1.20;;
64789;SDS011;51223;51.816;5.862;2022-07-06T03:46:22;2.45;;;0.98;;
64789;SDS011;51223;51.816;5.862;2022-07-06T03:48:48;1.17;;;0.88;;
64789;SDS011;51223;51.816;5.862;2022-07-06T03:51:13;1.58;;;0.68;;
64789;SDS011;51223;51.816;5.862;2022-07-06T03:53:39;4.07;;;1.40;;
64789;SDS011;51223;51.816;5.862;2022-07-06T03:56:05;1.13;;;0.90;;
64789;SDS011;51223;51.816;5.862;2022-07-06T03:58:49;1.63;;;0.95;;
64789;SDS011;51223;51.816;5.862;2022-07-06T04:01:15;1.35;;;0.90;;
64789;SDS011;51223;51.816;5.862;2022-07-06T04:03:41;1.23;;;0.85;;
64789;SDS011;51223;51.816;5.862;2022-07-06T04:06:07;1.35;;;0.80;;
64789;SDS011;51223;51.816;5.862;2022-07-06T04:08:32;4.15;;;0.80;;
64789;SDS011;51223;51.816;5.862;2022-07-06T04:10:58;1.25;;;0.90;;
64789;SDS011;51223;51.816;5.862;2022-07-06T04:13:24;2.38;;;0.90;;
64789;SDS011;51223;51.816;5.862;2022-07-06T04:15:51;1.52;;;0.88;;
64789;SDS011;51223;51.816;5.862;2022-07-06T04:18:17;1.20;;;0.77;;
64789;SDS011;51223;51.816;5.862;2022-07-06T04:20:42;1.10;;;1.00;;
64789;SDS011;51223;51.816;5.862;2022-07-06T04:23:08;1.30;;;1.13;;
64789;SDS011;51223;51.816;5.862;2022-07-06T04:25:34;1.10;;;1.00;;
64789;SDS011;51223;51.816;5.862;2022-07-06T04:28:00;2.83;;;1.30;;
64789;SDS011;51223;51.816;5.862;2022-07-06T04:30:26;3.00;;;1.30;;
64789;SDS011;51223;51.816;5.862;2022-07-06T04:32:52;1.10;;;0.90;;
64789;SDS011;51223;51.816;5.862;2022-07-06T04:35:18;0.85;;;0.85;;
64789;SDS011;51223;51.816;5.862;2022-07-06T04:37:44;1.05;;;0.82;;
64789;SDS011;51223;51.816;5.862;2022-07-06T04:40:11;2.25;;;0.90;;
64789;SDS011;51223;51.816;5.862;2022-07-06T04:42:37;2.20;;;1.25;;
64789;SDS011;51223;51.816;5.862;2022-07-06T04:45:04;8.35;;;1.90;;
64789;SDS011;51223;51.816;5.862;2022-07-06T04:47:30;2.35;;;1.20;;
64789;SDS011;51223;51.816;5.862;2022-07-06T04:49:56;2.38;;;1.38;;
64789;SDS011;51223;51.816;5.862;2022-07-06T04:52:22;2.22;;;1.40;;
64789;SDS011;51223;51.816;5.862;2022-07-06T04:54:48;2.50;;;1.50;;
64789;SDS011;51223;51.816;5.862;2022-07-06T04:57:14;2.55;;;1.85;;
64789;SDS011;51223;51.816;5.862;2022-07-06T04:59:40;1.23;;;1.13;;
64789;SDS011;51223;51.816;5.862;2022-07-06T05:02:06;3.83;;;1.05;;
64789;SDS011;51223;51.816;5.862;2022-07-06T05:04:32;2.42;;;1.30;;
64789;SDS011;51223;51.816;5.862;2022-07-06T05:06:58;2.35;;;1.20;;
64789;SDS011;51223;51.816;5.862;2022-07-06T05:09:24;1.27;;;0.82;;
64789;SDS011;51223;51.816;5.862;2022-07-06T05:11:50;1.67;;;1.25;;
64789;SDS011;51223;51.816;5.862;2022-07-06T05:14:16;4.32;;;1.50;;
64789;SDS011;51223;51.816;5.862;2022-07-06T05:16:42;1.60;;;1.40;;
64789;SDS011;51223;51.816;5.862;2022-07-06T05:19:08;1.67;;;1.13;;
64789;SDS011;51223;51.816;5.862;2022-07-06T05:21:33;2.35;;;1.45;;
64789;SDS011;51223;51.816;5.862;2022-07-06T05:23:59;4.88;;;1.52;;
64789;SDS011;51223;51.816;5.862;2022-07-06T05:26:25;2.45;;;1.58;;
64789;SDS011;51223;51.816;5.862;2022-07-06T05:28:51;5.18;;;1.70;;
64789;SDS011;51223;51.816;5.862;2022-07-06T05:31:17;2.50;;;1.55;;
64789;SDS011;51223;51.816;5.862;2022-07-06T05:33:42;3.90;;;1.45;;
64789;SDS011;51223;51.816;5.862;2022-07-06T05:36:08;2.78;;;1.50;;
64789;SDS011;51223;51.816;5.862;2022-07-06T05:38:35;2.40;;;1.50;;
64789;SDS011;51223;51.816;5.862;2022-07-06T05:41:00;3.10;;;1.77;;
64789;SDS011;51223;51.816;5.862;2022-07-06T05:43:28;2.20;;;1.48;;
64789;SDS011;51223;51.816;5.862;2022-07-06T05:45:53;1.75;;;1.38;;
64789;SDS011;51223;51.816;5.862;2022-07-06T05:48:19;4.07;;;1.40;;
64789;SDS011;51223;51.816;5.862;2022-07-06T05:51:03;2.47;;;1.30;;
64789;SDS011;51223;51.816;5.862;2022-07-06T05:53:29;3.15;;;1.08;;
64789;SDS011;51223;51.816;5.862;2022-07-06T05:55:55;1.30;;;0.90;;
64789;SDS011;51223;51.816;5.862;2022-07-06T05:58:21;2.25;;;1.08;;
64789;SDS011;51223;51.816;5.862;2022-07-06T06:00:47;1.10;;;1.00;;
64789;SDS011;51223;51.816;5.862;2022-07-06T06:03:13;2.22;;;1.00;;
64789;SDS011;51223;51.816;5.862;2022-07-06T06:05:38;3.05;;;1.20;;
64789;SDS011;51223;51.816;5.862;2022-07-06T06:08:04;1.63;;;0.95;;
64789;SDS011;51223;51.816;5.862;2022-07-06T06:10:30;1.67;;;1.20;;
64789;SDS011;51223;51.816;5.862;2022-07-06T06:12:56;0.95;;;0.68;;
64789;SDS011;51223;51.816;5.862;2022-07-06T06:15:22;1.00;;;0.65;;
64789;SDS011;51223;51.816;5.862;2022-07-06T06:17:48;4.85;;;0.70;;
64789;SDS011;51223;51.816;5.862;2022-07-06T06:20:14;2.35;;;1.20;;
64789;SDS011;51223;51.816;5.862;2022-07-06T06:22:53;0.65;;;0.65;;
64789;SDS011;51223;51.816;5.862;2022-07-06T06:25:21;2.40;;;0.82;;
64789;SDS011;51223;51.816;5.862;2022-07-06T06:27:54;1.50;;;0.90;;
64789;SDS011;51223;51.816;5.862;2022-07-06T06:30:20;0.50;;;0.50;;
64789;SDS011;51223;51.816;5.862;2022-07-06T06:32:46;0.57;;;0.45;;
64789;SDS011;51223;51.816;5.862;2022-07-06T06:35:12;0.47;;;0.47;;
64789;SDS011;51223;51.816;5.862;2022-07-06T06:37:38;2.53;;;1.05;;
64789;SDS011;51223;51.816;5.862;2022-07-06T06:40:04;0.75;;;0.45;;
64789;SDS011;51223;51.816;5.862;2022-07-06T06:42:31;1.45;;;0.77;;
64789;SDS011;51223;51.816;5.862;2022-07-06T06:44:57;2.38;;;0.50;;
64789;SDS011;51223;51.816;5.862;2022-07-06T06:47:23;1.00;;;0.60;;
64789;SDS011;51223;51.816;5.862;2022-07-06T06:49:49;0.50;;;0.50;;
64789;SDS011;51223;51.816;5.862;2022-07-06T06:52:15;0.80;;;0.50;;
64789;SDS011;51223;51.816;5.862;2022-07-06T06:54:41;5.53;;;1.20;;
64789;SDS011;51223;51.816;5.862;2022-07-06T06:57:07;0.40;;;0.40;;
64789;SDS011;51223;51.816;5.862;2022-07-06T06:59:32;1.27;;;0.50;;
64789;SDS011;51223;51.816;5.862;2022-07-06T07:01:58;3.30;;;0.82;;
64789;SDS011;51223;51.816;5.862;2022-07-06T07:04:24;2.17;;;0.20;;
64789;SDS011;51223;51.816;5.862;2022-07-06T07:06:50;1.85;;;0.40;;
64789;SDS011;51223;51.816;5.862;2022-07-06T07:09:16;0.32;;;0.25;;
64789;SDS011;51223;51.816;5.862;2022-07-06T07:11:42;0.20;;;0.20;;
64789;SDS011;51223;51.816;5.862;2022-07-06T07:14:07;0.30;;;0.30;;
64789;SDS011;51223;51.816;5.862;2022-07-06T07:16:33;0.35;;;0.25;;
64789;SDS011;51223;51.816;5.862;2022-07-06T07:18:59;1.92;;;0.50;;
64789;SDS011;51223;51.816;5.862;2022-07-06T07:21:25;0.35;;;0.35;;
64789;SDS011;51223;51.816;5.862;2022-07-06T07:23:51;0.15;;;0.15;;
64789;SDS011;51223;51.816;5.862;2022-07-06T07:26:17;0.30;;;0.15;;
64789;SDS011;51223;51.816;5.862;2022-07-06T07:28:43;0.03;;;0.03;;
64789;SDS011;51223;51.816;5.862;2022-07-06T07:31:09;0.00;;;0.00;;
64789;SDS011;51223;51.816;5.862;2022-07-06T07:33:35;0.32;;;0.32;;
64789;SDS011;51223;51.816;5.862;2022-07-06T07:36:01;0.10;;;0.10;;
64789;SDS011;51223;51.816;5.862;2022-07-06T07:38:26;0.32;;;0.32;;
64789;SDS011;51223;51.816;5.862;2022-07-06T07:40:53;1.02;;;0.50;;
64789;SDS011;51223;51.816;5.862;2022-07-06T07:43:19;0.68;;;0.60;;
64789;SDS011;51223;51.816;5.862;2022-07-06T07:45:45;0.00;;;0.00;;
64789;SDS011;51223;51.816;5.862;2022-07-06T07:48:12;0.35;;;0.22;;
64789;SDS011;51223;51.816;5.862;2022-07-06T07:50:37;0.20;;;0.08;;
64789;SDS011;51223;51.816;5.862;2022-07-06T07:53:03;0.45;;;0.20;;
64789;SDS011;51223;51.816;5.862;2022-07-06T07:55:29;4.57;;;1.08;;
64789;SDS011;51223;51.816;5.862;2022-07-06T07:57:55;3.90;;;0.65;;
64789;SDS011;51223;51.816;5.862;2022-07-06T08:00:21;0.60;;;0.35;;
64789;SDS011;51223;51.816;5.862;2022-07-06T08:02:47;3.67;;;0.30;;
64789;SDS011;51223;51.816;5.862;2022-07-06T08:05:13;1.80;;;1.08;;
64789;SDS011;51223;51.816;5.862;2022-07-06T08:07:41;0.43;;;0.40;;
64789;SDS011;51223;51.816;5.862;2022-07-06T08:10:08;0.20;;;0.15;;
64789;SDS011;51223;51.816;5.862;2022-07-06T08:12:35;5.97;;;0.60;;
64789;SDS011;51223;51.816;5.862;2022-07-06T08:15:01;4.15;;;0.45;;
64789;SDS011;51223;51.816;5.862;2022-07-06T08:17:28;0.10;;;0.10;;
64789;SDS011;51223;51.816;5.862;2022-07-06T08:19:55;0.75;;;0.57;;
64789;SDS011;51223;51.816;5.862;2022-07-06T08:22:20;2.75;;;0.30;;
64789;SDS011;51223;51.816;5.862;2022-07-06T08:24:46;1.30;;;0.30;;
64789;SDS011;51223;51.816;5.862;2022-07-06T08:27:12;0.20;;;0.20;;
64789;SDS011;51223;51.816;5.862;2022-07-06T08:29:38;1.15;;;0.63;;
64789;SDS011;51223;51.816;5.862;2022-07-06T08:32:04;3.30;;;0.50;;
64789;SDS011;51223;51.816;5.862;2022-07-06T08:34:30;0.40;;;0.30;;
64789;SDS011;51223;51.816;5.862;2022-07-06T08:36:55;2.05;;;0.63;;
64789;SDS011;51223;51.816;5.862;2022-07-06T08:39:21;1.65;;;0.57;;
64789;SDS011;51223;51.816;5.862;2022-07-06T08:41:48;1.30;;;0.50;;
64789;SDS011;51223;51.816;5.862;2022-07-06T08:44:15;1.05;;;0.35;;
64789;SDS011;51223;51.816;5.862;2022-07-06T08:46:41;2.28;;;0.45;;
64789;SDS011;51223;51.816;5.862;2022-07-06T08:49:08;3.03;;;0.30;;
64789;SDS011;51223;51.816;5.862;2022-07-06T08:51:37;1.35;;;0.50;;
64789;SDS011;51223;51.816;5.862;2022-07-06T08:54:03;0.75;;;0.30;;
64789;SDS011;51223;51.816;5.862;2022-07-06T08:56:30;0.55;;;0.32;;
64789;SDS011;51223;51.816;5.862;2022-07-06T08:58:56;0.10;;;0.10;;
64789;SDS011;51223;51.816;5.862;2022-07-06T09:01:22;0.28;;;0.28;;
64789;SDS011;51223;51.816;5.862;2022-07-06T09:03:48;0.35;;;0.22;;
64789;SDS011;51223;51.816;5.862;2022-07-06T09:06:16;2.22;;;0.38;;
64789;SDS011;51223;51.816;5.862;2022-07-06T09:08:45;1.45;;;0.43;;
64789;SDS011;51223;51.816;5.862;2022-07-06T09:11:12;0.90;;;0.30;;
64789;SDS011;51223;51.816;5.862;2022-07-06T09:13:37;0.10;;;0.10;;
64789;SDS011;51223;51.816;5.862;2022-07-06T09:16:10;2.05;;;0.30;;
64789;SDS011;51223;51.816;5.862;2022-07-06T09:18:37;0.82;;;0.17;;
64789;SDS011;51223;51.816;5.862;2022-07-06T09:21:05;0.22;;;0.17;;
64789;SDS011;51223;51.816;5.862;2022-07-06T09:23:31;0.90;;;0.40;;
64789;SDS011;51223;51.816;5.862;2022-07-06T09:25:58;2.25;;;0.77;;
64789;SDS011;51223;51.816;5.862;2022-07-06T09:28:44;0.30;;;0.20;;
64789;SDS011;51223;51.816;5.862;2022-07-06T09:31:11;0.15;;;0.15;;
64789;SDS011;51223;51.816;5.862;2022-07-06T09:33:37;0.63;;;0.40;;
64789;SDS011;51223;51.816;5.862;2022-07-06T09:36:04;0.20;;;0.20;;
64789;SDS011;51223;51.816;5.862;2022-07-06T09:38:31;0.13;;;0.13;;
64789;SDS011;51223;51.816;5.862;2022-07-06T09:40:57;0.10;;;0.10;;
64789;SDS011;51223;51.816;5.862;2022-07-06T09:43:23;0.93;;;0.28;;
64789;SDS011;51223;51.816;5.862;2022-07-06T09:45:51;5.03;;;0.35;;
64789;SDS011;51223;51.816;5.862;2022-07-06T09:48:19;0.95;;;0.57;;
64789;SDS011;51223;51.816;5.862;2022-07-06T09:50:55;0.10;;;0.10;;
64789;SDS011;51223;51.816;5.862;2022-07-06T09:53:23;1.13;;;0.35;;
64789;SDS011;51223;51.816;5.862;2022-07-06T09:55:51;0.22;;;0.22;;
64789;SDS011;51223;51.816;5.862;2022-07-06T09:58:19;0.73;;;0.28;;
64789;SDS011;51223;51.816;5.862;2022-07-06T10:00:46;0.60;;;0.25;;
64789;SDS011;51223;51.816;5.862;2022-07-06T10:03:14;0.35;;;0.30;;
64789;SDS011;51223;51.816;5.862;2022-07-06T10:05:42;0.25;;;0.25;;
64789;SDS011;51223;51.816;5.862;2022-07-06T10:08:09;1.27;;;0.28;;
64789;SDS011;51223;51.816;5.862;2022-07-06T10:10:36;0.65;;;0.30;;
64789;SDS011;51223;51.816;5.862;2022-07-06T10:13:03;0.20;;;0.20;;
64789;SDS011;51223;51.816;5.862;2022-07-06T10:15:33;0.20;;;0.20;;
64789;SDS011;51223;51.816;5.862;2022-07-06T10:18:01;0.70;;;0.28;;
64789;SDS011;51223;51.816;5.862;2022-07-06T10:20:31;0.20;;;0.20;;
64789;SDS011;51223;51.816;5.862;2022-07-06T10:22:59;0.25;;;0.25;;
64789;SDS011;51223;51.816;5.862;2022-07-06T10:25:26;0.40;;;0.20;;
64789;SDS011;51223;51.816;5.862;2022-07-06T10:27:53;1.35;;;0.35;;
64789;SDS011;51223;51.816;5.862;2022-07-06T10:30:20;2.08;;;0.68;;
64789;SDS011;51223;51.816;5.862;2022-07-06T10:32:48;0.30;;;0.30;;
64789;SDS011;51223;51.816;5.862;2022-07-06T10:35:16;2.13;;;0.50;;
64789;SDS011;51223;51.816;5.862;2022-07-06T10:37:44;0.10;;;0.10;;
64789;SDS011;51223;51.816;5.862;2022-07-06T10:40:14;1.02;;;0.47;;
64789;SDS011;51223;51.816;5.862;2022-07-06T10:42:58;0.43;;;0.40;;
64789;SDS011;51223;51.816;5.862;2022-07-06T10:50:41;0.30;;;0.30;;
64789;SDS011;51223;51.816;5.862;2022-07-06T10:53:13;1.23;;;0.45;;
64789;SDS011;51223;51.816;5.862;2022-07-06T10:55:42;0.30;;;0.30;;
64789;SDS011;51223;51.816;5.862;2022-07-06T10:58:10;1.25;;;0.45;;
64789;SDS011;51223;51.816;5.862;2022-07-06T11:03:31;0.17;;;0.17;;
64789;SDS011;51223;51.816;5.862;2022-07-06T11:05:59;0.10;;;0.10;;
64789;SDS011;51223;51.816;5.862;2022-07-06T11:14:00;1.48;;;0.30;;
64789;SDS011;51223;51.816;5.862;2022-07-06T11:16:38;0.15;;;0.15;;
64789;SDS011;51223;51.816;5.862;2022-07-06T11:22:11;0.25;;;0.25;;
64789;SDS011;51223;51.816;5.862;2022-07-06T11:24:35;1.10;;;0.25;;
64789;SDS011;51223;51.816;5.862;2022-07-06T11:27:02;2.90;;;0.40;;
64789;SDS011;51223;51.816;5.862;2022-07-06T11:29:29;0.50;;;0.30;;
64789;SDS011;51223;51.816;5.862;2022-07-06T11:31:59;0.20;;;0.20;;
64789;SDS011;51223;51.816;5.862;2022-07-06T11:34:28;2.75;;;0.43;;
64789;SDS011;51223;51.816;5.862;2022-07-06T11:36:59;1.85;;;0.45;;
64789;SDS011;51223;51.816;5.862;2022-07-06T11:39:27;1.00;;;0.40;;
64789;SDS011;51223;51.816;5.862;2022-07-06T11:41:54;2.47;;;0.57;;
64789;SDS011;51223;51.816;5.862;2022-07-06T11:44:21;1.38;;;0.60;;
64789;SDS011;51223;51.816;5.862;2022-07-06T11:46:47;0.85;;;0.60;;
64789;SDS011;51223;51.816;5.862;2022-07-06T11:49:13;0.30;;;0.30;;
64789;SDS011;51223;51.816;5.862;2022-07-06T11:51:40;5.38;;;0.55;;
64789;SDS011;51223;51.816;5.862;2022-07-06T11:54:11;0.20;;;0.20;;
64789;SDS011;51223;51.816;5.862;2022-07-06T11:56:45;0.32;;;0.32;;
64789;SDS011;51223;51.816;5.862;2022-07-06T11:59:15;0.25;;;0.25;;
64789;SDS011;51223;51.816;5.862;2022-07-06T12:01:42;2.25;;;0.40;;
64789;SDS011;51223;51.816;5.862;2022-07-06T12:04:09;0.57;;;0.55;;
64789;SDS011;51223;51.816;5.862;2022-07-06T12:06:36;0.57;;;0.45;;
64789;SDS011;51223;51.816;5.862;2022-07-06T12:09:02;0.50;;;0.40;;
64789;SDS011;51223;51.816;5.862;2022-07-06T12:11:31;1.77;;;0.35;;
64789;SDS011;51223;51.816;5.862;2022-07-06T12:13:59;0.98;;;0.40;;
64789;SDS011;51223;51.816;5.862;2022-07-06T12:16:30;1.05;;;0.60;;
64789;SDS011;51223;51.816;5.862;2022-07-06T12:18:58;4.40;;;0.45;;
64789;SDS011;51223;51.816;5.862;2022-07-06T12:21:24;2.33;;;0.57;;
64789;SDS011;51223;51.816;5.862;2022-07-06T12:23:51;2.53;;;0.32;;
64789;SDS011;51223;51.816;5.862;2022-07-06T12:26:20;0.70;;;0.60;;
64789;SDS011;51223;51.816;5.862;2022-07-06T12:28:59;0.57;;;0.40;;
64789;SDS011;51223;51.816;5.862;2022-07-06T12:31:35;2.42;;;0.60;;
64789;SDS011;51223;51.816;5.862;2022-07-06T12:34:03;0.50;;;0.50;;
64789;SDS011;51223;51.816;5.862;2022-07-06T12:36:31;1.10;;;0.47;;
64789;SDS011;51223;51.816;5.862;2022-07-06T12:39:10;0.63;;;0.63;;
64789;SDS011;51223;51.816;5.862;2022-07-06T12:41:38;0.20;;;0.20;;
64789;SDS011;51223;51.816;5.862;2022-07-06T12:44:12;0.55;;;0.40;;
64789;SDS011;51223;51.816;5.862;2022-07-06T12:46:38;0.40;;;0.30;;
64789;SDS011;51223;51.816;5.862;2022-07-06T12:51:51;0.95;;;0.30;;
64789;SDS011;51223;51.816;5.862;2022-07-06T12:54:20;1.10;;;0.55;;
64789;SDS011;51223;51.816;5.862;2022-07-06T12:57:09;1.30;;;0.52;;
64789;SDS011;51223;51.816;5.862;2022-07-06T12:59:38;4.03;;;0.60;;
64789;SDS011;51223;51.816;5.862;2022-07-06T13:02:18;2.13;;;0.50;;
64789;SDS011;51223;51.816;5.862;2022-07-06T13:07:36;0.20;;;0.20;;
64789;SDS011;51223;51.816;5.862;2022-07-06T13:10:04;1.85;;;0.32;;
64789;SDS011;51223;51.816;5.862;2022-07-06T13:12:34;0.47;;;0.30;;
64789;SDS011;51223;51.816;5.862;2022-07-06T13:15:01;0.47;;;0.30;;
64789;SDS011;51223;51.816;5.862;2022-07-06T13:17:27;2.22;;;0.60;;
64789;SDS011;51223;51.816;5.862;2022-07-06T13:19:53;0.20;;;0.20;;
64789;SDS011;51223;51.816;5.862;2022-07-06T13:22:19;0.98;;;0.38;;
64789;SDS011;51223;51.816;5.862;2022-07-06T13:24:45;0.20;;;0.20;;
64789;SDS011;51223;51.816;5.862;2022-07-06T13:27:11;0.20;;;0.20;;
64789;SDS011;51223;51.816;5.862;2022-07-06T13:29:37;0.40;;;0.40;;
64789;SDS011;51223;51.816;5.862;2022-07-06T13:32:03;0.93;;;0.40;;
64789;SDS011;51223;51.816;5.862;2022-07-06T13:34:30;0.47;;;0.35;;
64789;SDS011;51223;51.816;5.862;2022-07-06T13:36:56;0.80;;;0.50;;
64789;SDS011;51223;51.816;5.862;2022-07-06T13:39:22;0.40;;;0.40;;
64789;SDS011;51223;51.816;5.862;2022-07-06T13:41:49;0.10;;;0.10;;
64789;SDS011;51223;51.816;5.862;2022-07-06T13:44:15;0.85;;;0.30;;
64789;SDS011;51223;51.816;5.862;2022-07-06T13:46:41;0.45;;;0.45;;
64789;SDS011;51223;51.816;5.862;2022-07-06T13:49:08;2.83;;;0.38;;
64789;SDS011;51223;51.816;5.862;2022-07-06T13:51:34;3.55;;;0.52;;
64789;SDS011;51223;51.816;5.862;2022-07-06T13:54:00;0.68;;;0.40;;
64789;SDS011;51223;51.816;5.862;2022-07-06T13:56:27;0.45;;;0.17;;
64789;SDS011;51223;51.816;5.862;2022-07-06T13:58:53;0.45;;;0.40;;
64789;SDS011;51223;51.816;5.862;2022-07-06T14:01:20;0.10;;;0.10;;
64789;SDS011;51223;51.816;5.862;2022-07-06T14:03:46;0.22;;;0.22;;
64789;SDS011;51223;51.816;5.862;2022-07-06T14:06:12;2.17;;;0.68;;
64789;SDS011;51223;51.816;5.862;2022-07-06T14:08:39;2.17;;;0.60;;
64789;SDS011;51223;51.816;5.862;2022-07-06T14:11:05;0.00;;;0.00;;
64789;SDS011;51223;51.816;5.862;2022-07-06T14:13:34;0.30;;;0.20;;
64789;SDS011;51223;51.816;5.862;2022-07-06T14:16:00;2.65;;;0.43;;
64789;SDS011;51223;51.816;5.862;2022-07-06T14:18:26;0.30;;;0.30;;
64789;SDS011;51223;51.816;5.862;2022-07-06T14:20:52;0.63;;;0.43;;
64789;SDS011;51223;51.816;5.862;2022-07-06T14:23:20;1.30;;;0.32;;
64789;SDS011;51223;51.816;5.862;2022-07-06T14:25:46;0.35;;;0.35;;
64789;SDS011;51223;51.816;5.862;2022-07-06T14:28:13;0.17;;;0.17;;
64789;SDS011;51223;51.816;5.862;2022-07-06T14:30:40;0.20;;;0.20;;
64789;SDS011;51223;51.816;5.862;2022-07-06T14:33:09;0.30;;;0.30;;
64789;SDS011;51223;51.816;5.862;2022-07-06T14:35:42;0.20;;;0.20;;
64789;SDS011;51223;51.816;5.862;2022-07-06T14:38:09;1.60;;;0.57;;
64789;SDS011;51223;51.816;5.862;2022-07-06T14:40:36;2.42;;;0.40;;
64789;SDS011;51223;51.816;5.862;2022-07-06T14:43:02;2.17;;;0.20;;
64789;SDS011;51223;51.816;5.862;2022-07-06T14:45:28;1.10;;;0.47;;
64789;SDS011;51223;51.816;5.862;2022-07-06T14:47:55;1.70;;;0.90;;
64789;SDS011;51223;51.816;5.862;2022-07-06T14:50:20;1.50;;;0.40;;
64789;SDS011;51223;51.816;5.862;2022-07-06T14:52:50;0.20;;;0.20;;
64789;SDS011;51223;51.816;5.862;2022-07-06T14:55:17;1.27;;;0.57;;
64789;SDS011;51223;51.816;5.862;2022-07-06T14:57:43;1.10;;;0.40;;
64789;SDS011;51223;51.816;5.862;2022-07-06T15:00:09;0.75;;;0.40;;
64789;SDS011;51223;51.816;5.862;2022-07-06T15:02:35;0.52;;;0.40;;
64789;SDS011;51223;51.816;5.862;2022-07-06T15:05:01;0.60;;;0.60;;
64789;SDS011;51223;51.816;5.862;2022-07-06T15:07:27;3.83;;;0.63;;
64789;SDS011;51223;51.816;5.862;2022-07-06T15:09:53;0.32;;;0.32;;